createdAt,value
2018-11-14T00:16:10.947Z,10.90
2018-11-14T00:18:39.300Z,10.37
2018-11-14T00:21:07.997Z,11.60
2018-11-14T00:23:36.630Z,11.37
2018-11-14T00:26:05.477Z,11.77
2018-11-14T00:28:34.018Z,10.73
2018-11-14T00:31:02.451Z,11.57
2018-11-14T00:33:30.887Z,11.70
2018-11-14T00:35:59.357Z,11.37
2018-11-14T00:38:27.709Z,11.07
2018-11-14T00:40:56.102Z,11.77
2018-11-14T00:43:24.484Z,11.90
2018-11-14T00:45:52.829Z,11.57
2018-11-14T00:48:21.210Z,12.20
2018-11-14T00:50:49.613Z,12.47
2018-11-14T00:53:18.039Z,11.93
2018-11-14T00:55:46.381Z,11.47
2018-11-14T00:58:14.754Z,12.63
2018-11-14T01:00:43.168Z,11.43
2018-11-14T01:03:11.545Z,11.70
2018-11-14T01:05:39.975Z,11.07
2018-11-14T01:08:08.642Z,11.17
2018-11-14T01:10:37.043Z,10.47
2018-11-14T01:13:05.700Z,11.23
2018-11-14T01:15:34.287Z,11.03
2018-11-14T01:18:02.645Z,10.20
2018-11-14T01:20:35.330Z,10.70
2018-11-14T01:23:03.713Z,11.13
2018-11-14T01:25:32.300Z,10.67
2018-11-14T01:28:00.649Z,10.77
2018-11-14T01:30:28.995Z,10.70
2018-11-14T01:32:57.397Z,11.30
2018-11-14T01:35:25.750Z,10.93
2018-11-14T01:37:54.361Z,11.37
2018-11-14T01:40:25.826Z,10.50
2018-11-14T01:42:58.010Z,10.77
2018-11-14T01:45:26.434Z,10.83
2018-11-14T01:47:54.796Z,10.67
2018-11-14T01:50:23.123Z,11.03
2018-11-14T01:52:51.406Z,11.47
2018-11-14T01:55:20.602Z,10.30
2018-11-14T01:57:48.924Z,11.13
2018-11-14T02:00:24.822Z,10.47
2018-11-14T02:02:53.200Z,11.33
2018-11-14T02:14:02.493Z,11.10
2018-11-14T02:16:30.867Z,9.73
2018-11-14T02:18:59.236Z,10.83
2018-11-14T02:21:27.552Z,10.13
2018-11-14T02:23:55.883Z,10.77
2018-11-14T02:26:24.224Z,10.07
2018-11-14T02:28:53.005Z,9.83
2018-11-14T02:31:21.599Z,9.33
2018-11-14T02:33:49.933Z,9.03
2018-11-14T02:36:18.496Z,9.03
2018-11-14T02:38:46.856Z,9.20
2018-11-14T02:41:15.190Z,9.90
2018-11-14T02:43:43.523Z,10.37
2018-11-14T02:46:11.976Z,8.60
2018-11-14T02:48:40.335Z,8.93
2018-11-14T02:51:19.825Z,9.13
2018-11-14T02:53:48.237Z,8.77
2018-11-14T02:56:16.590Z,9.33
2018-11-14T02:58:44.931Z,10.00
2018-11-14T03:01:13.248Z,9.43
2018-11-14T03:03:41.611Z,8.87
2018-11-14T03:06:09.986Z,9.87
2018-11-14T03:08:38.725Z,9.80
2018-11-14T03:11:07.906Z,10.10
2018-11-14T03:13:36.276Z,8.83
2018-11-14T03:16:04.871Z,9.70
2018-11-14T03:18:33.817Z,9.47
2018-11-14T03:21:02.492Z,10.03
2018-11-14T03:23:30.852Z,9.43
2018-11-14T03:25:59.557Z,9.73
2018-11-14T03:28:27.867Z,10.70
2018-11-14T03:31:01.938Z,10.20
2018-11-14T03:33:30.280Z,10.27
2018-11-14T03:36:04.374Z,10.93
2018-11-14T03:38:32.766Z,11.57
2018-11-14T03:41:01.132Z,11.03
2018-11-14T03:43:29.484Z,12.57
2018-11-14T03:45:57.793Z,12.23
2018-11-14T03:48:26.076Z,11.33
2018-11-14T03:50:54.422Z,11.73
2018-11-14T03:53:22.747Z,11.73
2018-11-14T03:55:51.092Z,12.67
2018-11-14T03:58:19.482Z,11.87
2018-11-14T04:00:47.914Z,11.97
2018-11-14T04:03:16.244Z,11.47
2018-11-14T04:05:44.591Z,12.57
2018-11-14T04:08:13.098Z,11.57
2018-11-14T04:10:44.807Z,12.87
2018-11-14T04:13:13.144Z,11.70
2018-11-14T04:15:41.430Z,12.60
2018-11-14T04:18:09.754Z,12.53
2018-11-14T04:20:38.092Z,12.50
2018-11-14T04:23:06.465Z,12.03
2018-11-14T04:25:34.798Z,12.80
2018-11-14T04:28:03.153Z,12.07
2018-11-14T04:30:31.572Z,12.90
2018-11-14T04:32:59.978Z,12.87
2018-11-14T04:35:28.322Z,12.73
2018-11-14T04:37:56.661Z,12.50
2018-11-14T04:40:25.264Z,12.53
2018-11-14T04:42:53.681Z,12.67
2018-11-14T04:45:23.262Z,11.73
2018-11-14T04:47:51.608Z,12.37
2018-11-14T04:50:21.981Z,12.97
2018-11-14T04:52:50.782Z,12.70
2018-11-14T04:55:20.163Z,12.50
2018-11-14T04:57:49.084Z,13.13
2018-11-14T05:00:18.482Z,12.93
2018-11-14T05:02:47.495Z,12.57
2018-11-14T05:05:16.986Z,12.60
2018-11-14T05:07:45.318Z,12.63
2018-11-14T05:10:15.950Z,13.57
2018-11-14T05:12:44.496Z,13.60
2018-11-14T05:15:14.493Z,13.17
2018-11-14T05:17:43.303Z,12.57
2018-11-14T05:20:13.261Z,12.87
2018-11-14T05:22:42.244Z,12.63
2018-11-14T05:25:10.841Z,13.63
2018-11-14T05:27:39.180Z,13.60
2018-11-14T05:30:12.821Z,14.60
2018-11-14T05:32:41.491Z,14.13
2018-11-14T05:35:10.694Z,13.10
2018-11-14T05:37:39.511Z,14.07
2018-11-14T05:40:09.863Z,13.83
2018-11-14T05:42:38.919Z,13.83
2018-11-14T05:45:09.381Z,12.70
2018-11-14T05:47:38.063Z,12.87
2018-11-14T05:50:09.088Z,14.03
2018-11-14T05:52:37.514Z,14.33
2018-11-14T05:55:06.530Z,14.50
2018-11-14T05:57:34.945Z,13.30
2018-11-14T06:00:03.612Z,13.20
2018-11-14T06:02:31.916Z,13.53
2018-11-14T06:05:00.279Z,13.50
2018-11-14T06:07:28.710Z,13.80
2018-11-14T06:09:57.168Z,13.50
2018-11-14T06:12:25.501Z,13.67
2018-11-14T06:14:54.220Z,13.83
2018-11-14T06:17:22.586Z,13.50
2018-11-14T06:19:51.488Z,13.97
2018-11-14T06:22:19.860Z,13.80
2018-11-14T06:24:48.211Z,14.03
2018-11-14T06:27:16.726Z,13.80
2018-11-14T06:29:45.328Z,14.03
2018-11-14T06:32:13.953Z,13.80
2018-11-14T06:34:42.368Z,13.70
2018-11-14T06:37:10.885Z,13.20
2018-11-14T06:39:39.402Z,13.70
2018-11-14T06:42:07.888Z,12.97
2018-11-14T06:44:36.249Z,13.10
2018-11-14T06:47:04.977Z,13.73
2018-11-14T06:49:35.075Z,13.83
2018-11-14T06:52:03.419Z,14.43
2018-11-14T06:54:31.821Z,13.07
2018-11-14T06:57:00.340Z,13.10
2018-11-14T06:59:28.755Z,13.83
2018-11-14T07:01:57.224Z,13.23
2018-11-14T07:04:25.643Z,13.57
2018-11-14T07:06:54.044Z,13.37
2018-11-14T07:09:22.559Z,14.00
2018-11-14T07:11:50.997Z,13.20
2018-11-14T07:14:19.442Z,13.50
2018-11-14T07:16:47.773Z,14.30
2018-11-14T07:19:16.128Z,13.80
2018-11-14T07:21:44.839Z,13.80
2018-11-14T07:24:13.254Z,13.77
2018-11-14T07:26:41.634Z,15.30
2018-11-14T07:29:10.205Z,14.00
2018-11-14T07:31:38.536Z,13.77
2018-11-14T07:34:06.997Z,13.80
2018-11-14T07:36:35.406Z,14.10
2018-11-14T07:39:05.512Z,14.80
2018-11-14T07:41:35.237Z,14.33
2018-11-14T07:44:03.561Z,15.37
2018-11-14T07:46:32.828Z,14.40
2018-11-14T07:49:01.282Z,14.10
2018-11-14T07:51:30.443Z,14.00
2018-11-14T07:53:59.141Z,15.10
2018-11-14T07:56:27.694Z,14.50
2018-11-14T07:58:56.445Z,14.13
2018-11-14T08:01:24.826Z,14.00
2018-11-14T08:03:53.206Z,14.20
2018-11-14T08:06:22.049Z,13.37
2018-11-14T08:08:50.522Z,12.73
2018-11-14T08:11:19.286Z,13.83
2018-11-14T08:13:49.458Z,13.73
2018-11-14T08:16:18.743Z,13.33
2018-11-14T08:18:47.466Z,14.30
2018-11-14T08:21:15.963Z,14.70
2018-11-14T08:23:44.349Z,12.73
2018-11-14T08:26:13.413Z,12.87
2018-11-14T08:28:41.837Z,13.60
2018-11-14T08:31:10.233Z,13.53
2018-11-14T08:33:38.954Z,13.50
2018-11-14T08:36:07.986Z,12.83
2018-11-14T08:38:36.469Z,13.27
2018-11-14T08:41:05.361Z,12.17
2018-11-14T08:43:33.829Z,12.77
2018-11-14T08:46:02.653Z,12.67
2018-11-14T08:48:31.381Z,14.03
2018-11-14T08:51:01.051Z,12.90
2018-11-14T08:53:29.476Z,13.80
2018-11-14T08:55:58.632Z,12.60
2018-11-14T08:58:27.240Z,12.67
2018-11-14T09:00:55.562Z,11.93
2018-11-14T09:03:24.001Z,13.03
2018-11-14T09:05:52.832Z,10.80
2018-11-14T09:08:21.767Z,12.47
2018-11-14T09:10:50.115Z,12.33
2018-11-14T09:13:18.548Z,12.70
2018-11-14T09:15:47.009Z,12.60
2018-11-14T09:18:15.573Z,11.17
2018-11-14T09:20:44.516Z,13.07
2018-11-14T09:23:12.983Z,12.10
2018-11-14T09:25:41.371Z,11.83
2018-11-14T09:28:09.709Z,12.77
2018-11-14T09:30:38.061Z,12.70
2018-11-14T09:33:06.662Z,12.33
2018-11-14T09:35:35.189Z,12.70
2018-11-14T09:38:03.708Z,12.13
2018-11-14T09:40:32.047Z,12.33
2018-11-14T09:43:00.395Z,12.10
2018-11-14T09:45:30.009Z,12.43
2018-11-14T09:48:00.049Z,11.60
2018-11-14T09:50:30.742Z,12.03
2018-11-14T09:53:01.627Z,11.37
2018-11-14T09:55:30.273Z,13.27
2018-11-14T09:57:59.196Z,12.83
2018-11-14T10:00:30.732Z,12.67
2018-11-14T10:03:02.731Z,12.80
2018-11-14T10:05:31.423Z,12.07
2018-11-14T10:08:00.781Z,14.13
2018-11-14T10:10:29.251Z,13.27
2018-11-14T10:12:57.702Z,11.83
2018-11-14T10:15:26.693Z,12.87
2018-11-14T10:17:55.356Z,12.43
2018-11-14T10:20:24.639Z,11.43
2018-11-14T10:22:53.151Z,10.23
2018-11-14T10:25:21.671Z,11.20
2018-11-14T10:27:50.652Z,10.83
2018-11-14T10:30:20.443Z,11.67
2018-11-14T10:32:49.431Z,11.67
2018-11-14T10:35:17.839Z,11.90
2018-11-14T10:37:46.395Z,11.27
2018-11-14T10:40:17.646Z,11.60
2018-11-14T10:42:46.133Z,10.53
2018-11-14T10:45:15.710Z,11.60
2018-11-14T10:47:44.323Z,10.90
2018-11-14T10:50:15.952Z,10.17
2018-11-14T10:52:44.400Z,9.87
2018-11-14T10:55:13.837Z,9.60
2018-11-14T10:57:42.199Z,9.70
2018-11-14T11:00:16.904Z,10.30
2018-11-14T11:02:50.616Z,9.83
2018-11-14T11:05:24.615Z,9.27
2018-11-14T11:07:58.354Z,9.57
2018-11-14T11:10:32.001Z,9.63
2018-11-14T11:13:04.709Z,9.27
2018-11-14T11:15:38.955Z,8.77
2018-11-14T11:18:09.597Z,8.80
2018-11-14T11:20:38.504Z,8.97
2018-11-14T11:23:07.075Z,9.20
2018-11-14T11:25:35.461Z,8.20
2018-11-14T11:28:03.823Z,8.73
2018-11-14T11:30:32.349Z,7.83
2018-11-14T11:33:00.954Z,8.40
2018-11-14T11:35:29.317Z,7.80
2018-11-14T11:37:57.931Z,8.63
2018-11-14T11:40:26.659Z,8.18
2018-11-14T11:42:55.013Z,8.03
2018-11-14T11:45:23.906Z,8.03
2018-11-14T11:47:52.868Z,7.62
2018-11-14T11:50:21.842Z,7.33
2018-11-14T11:52:50.851Z,7.70
2018-11-14T11:55:19.486Z,6.95
2018-11-14T11:57:48.683Z,8.13
2018-11-14T12:00:17.823Z,7.03
2018-11-14T12:02:46.932Z,6.87
2018-11-14T12:05:15.849Z,7.30
2018-11-14T12:07:44.982Z,7.25
2018-11-14T12:10:14.604Z,6.12
2018-11-14T12:12:44.615Z,6.42
2018-11-14T12:15:14.361Z,7.08
2018-11-14T12:17:43.566Z,6.85
2018-11-14T12:20:14.085Z,6.40
2018-11-14T12:22:43.356Z,5.83
2018-11-14T12:25:14.725Z,6.10
2018-11-14T12:27:43.917Z,6.10
2018-11-14T12:30:16.325Z,5.72
2018-11-14T12:32:45.419Z,6.10
2018-11-14T12:35:15.845Z,5.45
2018-11-14T12:37:44.911Z,5.15
2018-11-14T12:40:14.604Z,5.55
2018-11-14T12:42:43.540Z,5.00
2018-11-14T12:45:15.229Z,5.40
2018-11-14T12:47:44.605Z,4.80
2018-11-14T12:50:14.421Z,4.60
2018-11-14T12:52:43.612Z,5.00
2018-11-14T12:55:15.212Z,4.85
2018-11-14T12:57:44.219Z,4.67
2018-11-14T13:00:14.442Z,4.12
2018-11-14T13:02:43.448Z,3.80
2018-11-14T13:05:13.637Z,3.87
2018-11-14T13:07:42.989Z,3.65
2018-11-14T13:10:13.302Z,4.08
2018-11-14T13:12:42.809Z,3.87
2018-11-14T13:15:12.813Z,3.60
2018-11-14T13:17:42.365Z,3.80
2018-11-14T13:20:13.444Z,4.08
2018-11-14T13:22:42.684Z,2.90
2018-11-14T13:25:12.303Z,3.22
2018-11-14T13:27:42.225Z,2.67
2018-11-14T13:30:13.525Z,3.35
2018-11-14T13:32:42.777Z,3.67
2018-11-14T13:35:13.566Z,2.87
2018-11-14T13:37:43.437Z,3.25
2018-11-14T13:40:12.717Z,3.20
2018-11-14T13:42:41.951Z,3.62
2018-11-14T13:45:13.104Z,3.00
2018-11-14T13:47:42.481Z,3.60
2018-11-14T13:50:13.636Z,3.52
2018-11-14T13:52:42.725Z,3.58
2018-11-14T13:55:13.056Z,4.40
2018-11-14T13:57:43.183Z,5.17
2018-11-14T14:00:13.328Z,4.25
2018-11-14T14:02:43.364Z,4.25
2018-11-14T14:05:14.027Z,3.58
2018-11-14T14:07:42.968Z,4.55
2018-11-14T14:10:13.629Z,4.20
2018-11-14T14:12:44.006Z,4.72
2018-11-14T14:15:16.013Z,4.53
2018-11-14T14:17:45.694Z,4.60
2018-11-14T14:20:15.158Z,4.67
2018-11-14T14:22:44.553Z,4.30
2018-11-14T14:25:15.983Z,4.22
2018-11-14T14:27:45.018Z,4.20
2018-11-14T14:30:19.445Z,5.12
2018-11-14T14:32:48.994Z,4.67
2018-11-14T14:35:20.777Z,4.30
2018-11-14T14:37:49.762Z,4.20
2018-11-14T14:40:20.506Z,4.47
2018-11-14T14:42:49.546Z,4.65
2018-11-14T14:45:20.752Z,4.85
2018-11-14T14:47:49.716Z,5.15
2018-11-14T14:50:19.446Z,5.55
2018-11-14T14:52:48.514Z,5.90
2018-11-14T14:55:20.525Z,5.33
2018-11-14T14:57:49.641Z,6.28
2018-11-14T15:00:20.443Z,5.90
2018-11-14T15:02:49.473Z,6.12
2018-11-14T15:05:17.989Z,5.97
2018-11-14T15:07:47.049Z,5.87
2018-11-14T15:10:16.797Z,5.70
2018-11-14T15:12:45.851Z,6.22
2018-11-14T15:15:15.693Z,5.80
2018-11-14T15:17:44.569Z,5.37
2018-11-14T15:20:16.299Z,5.83
2018-11-14T15:22:44.867Z,5.20
2018-11-14T15:25:15.046Z,6.20
2018-11-14T15:27:44.018Z,6.00
2018-11-14T15:30:17.444Z,5.90
2018-11-14T15:32:45.859Z,5.50
2018-11-14T15:35:18.027Z,5.87
2018-11-14T15:37:46.638Z,5.47
2018-11-14T15:40:16.291Z,5.57
2018-11-14T15:42:44.826Z,5.47
2018-11-14T15:45:19.030Z,5.27
2018-11-14T15:47:47.413Z,5.00
2018-11-14T15:50:17.174Z,5.57
2018-11-14T15:52:46.598Z,4.70
2018-11-14T15:55:18.208Z,5.43
2018-11-14T15:57:46.735Z,5.37
2018-11-14T16:00:18.313Z,5.30
2018-11-14T16:02:46.661Z,4.93
2018-11-14T16:05:18.347Z,5.40
2018-11-14T16:07:48.154Z,5.67
2018-11-14T16:10:17.723Z,5.87
2018-11-14T16:12:46.102Z,5.73
2018-11-14T16:15:19.241Z,6.00
2018-11-14T16:17:47.924Z,5.70
2018-11-14T16:20:17.955Z,7.40
2018-11-14T16:22:46.454Z,6.07
2018-11-14T16:25:16.140Z,6.77
2018-11-14T16:27:45.347Z,6.67
2018-11-14T16:30:20.751Z,6.43
2018-11-14T16:32:50.351Z,6.77
2018-11-14T16:35:19.567Z,6.93
2018-11-14T16:37:48.241Z,7.03
2018-11-14T16:40:18.323Z,7.27
2018-11-14T16:42:46.906Z,7.83
2018-11-14T16:45:15.701Z,8.30
2018-11-14T16:47:44.212Z,8.47
2018-11-14T16:50:13.900Z,8.23
2018-11-14T16:52:42.263Z,8.40
2018-11-14T16:55:12.011Z,8.77
2018-11-14T16:57:41.376Z,8.13
2018-11-14T17:00:15.682Z,8.90
2018-11-14T17:02:44.058Z,9.57
2018-11-14T17:05:12.885Z,9.13
2018-11-14T17:07:41.210Z,10.77
2018-11-14T17:10:12.377Z,10.30
2018-11-14T17:12:41.581Z,9.90
2018-11-14T17:15:11.706Z,8.77
2018-11-14T17:17:40.115Z,10.53
2018-11-14T17:20:09.017Z,9.97
2018-11-14T17:22:37.382Z,10.63
2018-11-14T17:25:06.059Z,10.43
2018-11-14T17:27:34.467Z,11.30
2018-11-14T17:30:02.821Z,10.57
2018-11-14T17:32:31.245Z,9.60
2018-11-14T17:34:59.595Z,9.83
2018-11-14T17:37:27.945Z,9.77
2018-11-14T17:39:56.276Z,9.23
2018-11-14T17:42:24.698Z,10.57
2018-11-14T17:44:54.394Z,9.53
2018-11-14T17:49:52.338Z,9.90
2018-11-14T17:52:20.732Z,10.03
2018-11-14T17:54:49.085Z,9.83
2018-11-14T17:57:18.831Z,10.10
2018-11-14T17:59:47.217Z,10.37
2018-11-14T18:02:15.571Z,10.73
2018-11-14T18:04:43.939Z,9.37
2018-11-14T18:07:12.508Z,9.33
2018-11-14T18:09:41.340Z,12.17
2018-11-14T18:12:09.759Z,11.43
2018-11-14T18:14:38.416Z,11.30
2018-11-14T18:17:07.034Z,10.30
2018-11-14T18:19:35.458Z,10.40
2018-11-14T18:22:03.871Z,10.80
2018-11-14T18:24:32.484Z,10.87
2018-11-14T18:27:00.822Z,9.87
2018-11-14T18:29:30.807Z,9.07
2018-11-14T18:31:59.266Z,9.50
2018-11-14T18:34:27.654Z,9.33
2018-11-14T18:36:56.544Z,9.20
2018-11-14T18:39:25.354Z,9.30
2018-11-14T18:41:53.725Z,10.20
2018-11-14T18:44:31.436Z,9.63
2018-11-14T18:46:59.994Z,11.20
2018-11-14T18:49:28.400Z,9.57
2018-11-14T18:51:56.971Z,10.67
2018-11-14T18:54:25.958Z,9.70
2018-11-14T18:56:54.511Z,10.20
2018-11-14T18:59:23.063Z,10.20
2018-11-14T19:01:52.540Z,10.40
2018-11-14T19:04:21.066Z,10.70
2018-11-14T19:06:49.490Z,10.77
2018-11-14T19:09:21.704Z,10.47
2018-11-14T19:11:59.383Z,10.73
2018-11-14T19:14:27.736Z,10.47
2018-11-14T19:16:57.005Z,10.17
2018-11-14T19:19:25.389Z,10.43
2018-11-14T19:21:54.035Z,11.90
2018-11-14T19:24:22.579Z,12.20
2018-11-14T19:26:52.451Z,11.83
2018-11-14T19:29:21.293Z,11.07
2018-11-14T19:31:49.644Z,10.77
2018-11-14T19:34:18.267Z,11.90
2018-11-14T19:36:46.716Z,11.50
2018-11-14T19:39:15.193Z,11.17
2018-11-14T19:41:43.612Z,11.43
2018-11-14T19:44:12.019Z,10.77
2018-11-14T19:46:40.407Z,10.90
2018-11-14T19:49:10.749Z,11.30
2018-11-14T19:51:40.248Z,11.30
2018-11-14T19:54:08.670Z,10.33
2018-11-14T19:56:37.116Z,10.93
2018-11-14T19:59:05.529Z,11.20
2018-11-14T20:01:34.349Z,10.97
2018-11-14T20:04:03.231Z,12.10
2018-11-14T20:06:31.758Z,11.57
2018-11-14T20:09:00.127Z,10.70
2018-11-14T20:11:28.648Z,11.77
2018-11-14T20:13:57.003Z,12.27
2018-11-14T20:16:25.409Z,11.90
2018-11-14T20:18:53.944Z,12.00
2018-11-14T20:21:22.320Z,11.03
2018-11-14T20:23:50.862Z,11.53
2018-11-14T20:26:20.087Z,10.77
2018-11-14T20:28:48.665Z,11.50
2018-11-14T20:31:17.187Z,12.10
2018-11-14T20:33:45.711Z,12.23
2018-11-14T20:36:14.071Z,13.40
2018-11-14T20:38:42.584Z,12.43
2018-11-14T20:41:11.147Z,11.67
2018-11-14T20:43:39.535Z,12.47
2018-11-14T20:46:07.963Z,12.93
2018-11-14T20:48:36.343Z,12.70
2018-11-14T20:51:05.094Z,12.17
2018-11-14T20:53:33.780Z,12.73
2018-11-14T20:56:02.204Z,12.40
2018-11-14T20:58:30.713Z,12.70
2018-11-14T21:00:59.365Z,12.70
2018-11-14T21:03:27.732Z,13.30
2018-11-14T21:05:56.325Z,14.23
2018-11-14T21:08:24.918Z,12.33
2018-11-14T21:10:53.627Z,13.03
2018-11-14T21:13:22.165Z,21.90
2018-11-14T21:15:50.595Z,13.33
2018-11-14T21:18:19.052Z,12.77
2018-11-14T21:20:51.041Z,11.77
2018-11-14T21:23:19.589Z,11.50
2018-11-14T21:25:48.255Z,11.57
2018-11-14T21:28:16.776Z,12.30
2018-11-14T21:30:45.122Z,12.47
2018-11-14T21:33:13.617Z,12.10
2018-11-14T21:35:45.513Z,11.63
2018-11-14T21:38:13.985Z,11.30
2018-11-14T21:40:42.470Z,12.27
2018-11-14T21:43:10.915Z,11.63
2018-11-14T21:45:39.298Z,12.67
2018-11-14T21:48:13.541Z,14.07
2018-11-14T21:50:42.167Z,14.67
2018-11-14T21:53:10.865Z,13.50
2018-11-14T21:55:39.478Z,13.67
2018-11-14T21:58:11.420Z,13.20
2018-11-14T22:00:40.727Z,13.50
2018-11-14T22:03:09.873Z,12.27
2018-11-14T22:05:38.510Z,12.90
2018-11-14T22:08:07.677Z,12.70
2018-11-14T22:10:36.050Z,13.73
2018-11-14T22:13:04.500Z,14.00
2018-11-14T22:15:33.004Z,13.00
2018-11-14T22:18:01.422Z,12.90
2018-11-14T22:20:30.187Z,13.77
2018-11-14T22:22:58.575Z,13.97
2018-11-14T22:25:28.105Z,13.87
2018-11-14T22:27:56.651Z,13.20
2018-11-14T22:30:30.048Z,13.93
2018-11-14T22:32:58.867Z,14.07
2018-11-14T22:35:28.459Z,15.33
2018-11-14T22:37:57.035Z,14.87
2018-11-14T22:40:26.826Z,14.83
2018-11-14T22:42:55.573Z,14.13
2018-11-14T22:45:26.063Z,14.57
2018-11-14T22:47:54.533Z,15.10
2018-11-14T22:50:23.867Z,15.33
2018-11-14T22:52:52.802Z,14.73
2018-11-14T22:55:22.466Z,15.70
2018-11-14T22:57:51.348Z,14.93
2018-11-14T23:00:29.403Z,14.90
2018-11-14T23:02:59.029Z,15.23
2018-11-14T23:05:27.495Z,14.40
2018-11-14T23:07:56.611Z,15.83
2018-11-14T23:10:25.800Z,16.30
2018-11-14T23:12:54.204Z,15.87
2018-11-14T23:15:23.212Z,15.03
2018-11-14T23:17:52.000Z,15.20
2018-11-14T23:20:20.521Z,17.20
2018-11-14T23:22:49.778Z,16.67
2018-11-14T23:25:18.762Z,16.93
2018-11-14T23:27:48.244Z,16.73
2018-11-14T23:30:17.413Z,15.97
2018-11-14T23:32:46.956Z,16.37
2018-11-14T23:35:16.062Z,16.57
2018-11-14T23:37:45.900Z,17.17
2018-11-14T23:40:14.296Z,16.93
2018-11-14T23:42:42.690Z,18.50
2018-11-14T23:45:12.864Z,17.33
2018-11-14T23:47:41.719Z,17.33
2018-11-14T23:50:12.999Z,17.77
2018-11-14T23:52:42.719Z,17.53
2018-11-14T23:55:11.129Z,18.10
2018-11-14T23:57:39.929Z,18.87
